createdAt,value
2022-11-10T00:01:10.155Z,11.02
2022-11-10T00:04:16.336Z,9.73
2022-11-10T00:07:26.437Z,16.55
2022-11-10T00:10:33.472Z,12.95
2022-11-10T00:13:58.142Z,12.60
2022-11-10T00:17:04.812Z,12.85
2022-11-10T00:20:12.985Z,11.90
2022-11-10T00:23:19.268Z,12.65
2022-11-10T00:26:26.565Z,11.50
2022-11-10T00:32:39.061Z,11.65
2022-11-10T00:35:45.499Z,14.50
2022-11-10T00:38:52.026Z,11.38
2022-11-10T00:41:58.313Z,13.27
2022-11-10T00:45:05.030Z,14.35
2022-11-10T00:48:11.914Z,12.93
2022-11-10T00:51:25.491Z,14.20
2022-11-10T00:54:31.597Z,13.48
2022-11-10T00:57:37.958Z,16.05
2022-11-10T01:00:44.265Z,15.93
2022-11-10T01:03:51.505Z,16.38
2022-11-10T01:10:04.297Z,12.80
2022-11-10T01:13:10.816Z,15.38
2022-11-10T01:19:44.631Z,22.45
2022-11-10T01:22:51.297Z,15.50
2022-11-10T01:26:08.208Z,14.13
2022-11-10T01:29:14.469Z,17.38
2022-11-10T01:32:20.575Z,15.40
2022-11-10T01:35:26.739Z,14.77
2022-11-10T01:38:35.715Z,14.35
2022-11-10T01:41:41.909Z,16.77
2022-11-10T01:45:25.304Z,15.05
2022-11-10T01:48:44.184Z,17.77
2022-11-10T01:52:00.713Z,12.43
2022-11-10T01:55:07.255Z,20.02
2022-11-10T01:58:16.614Z,15.73
2022-11-10T02:01:23.703Z,16.63
2022-11-10T02:07:36.745Z,13.75
2022-11-10T02:10:42.954Z,14.82
2022-11-10T02:13:49.435Z,15.25
2022-11-10T02:16:56.280Z,17.33
2022-11-10T02:20:06.931Z,16.02
2022-11-10T02:23:34.451Z,17.92
2022-11-10T02:26:46.770Z,15.43
2022-11-10T02:29:53.183Z,14.23
2022-11-10T02:32:59.256Z,13.05
2022-11-10T02:36:05.569Z,13.90
2022-11-10T02:39:11.821Z,14.60
2022-11-10T02:42:18.100Z,14.75
2022-11-10T02:45:24.706Z,15.63
2022-11-10T02:48:31.367Z,12.60
2022-11-10T02:51:37.732Z,17.08
2022-11-10T02:54:44.164Z,16.65
2022-11-10T02:57:50.968Z,16.33
2022-11-10T03:00:57.287Z,15.07
2022-11-10T03:04:05.980Z,17.58
2022-11-10T03:07:12.198Z,14.52
2022-11-10T03:10:18.622Z,14.45
2022-11-10T03:13:32.253Z,15.25
2022-11-10T03:16:51.428Z,14.48
2022-11-10T03:19:57.926Z,14.20
2022-11-10T03:23:05.731Z,16.95
2022-11-10T03:26:11.916Z,14.95
2022-11-10T03:29:18.825Z,15.55
2022-11-10T03:32:25.250Z,19.50
2022-11-10T03:35:32.050Z,15.07
2022-11-10T03:38:38.391Z,16.35
2022-11-10T03:41:44.624Z,15.95
2022-11-10T03:44:50.872Z,17.98
2022-11-10T03:47:56.953Z,14.75
2022-11-10T03:51:03.662Z,15.77
2022-11-10T03:54:09.691Z,17.10
2022-11-10T03:57:16.222Z,18.48
2022-11-10T04:00:22.235Z,18.55
2022-11-10T04:03:28.673Z,17.17
2022-11-10T04:06:53.760Z,17.23
2022-11-10T04:10:00.141Z,20.88
2022-11-10T04:13:25.217Z,15.70
2022-11-10T04:16:31.616Z,16.92
2022-11-10T04:19:38.110Z,17.33
2022-11-10T04:23:02.467Z,19.90
2022-11-10T04:26:28.974Z,17.27
2022-11-10T04:29:34.952Z,15.90
2022-11-10T04:32:41.034Z,20.13
2022-11-10T04:35:47.297Z,17.65
2022-11-10T04:38:55.337Z,19.80
2022-11-10T04:42:03.059Z,16.42
2022-11-10T04:45:10.050Z,17.75
2022-11-10T04:48:16.285Z,20.95
2022-11-10T04:51:25.413Z,18.05
2022-11-10T04:54:31.368Z,20.73
2022-11-10T04:57:37.431Z,18.63
2022-11-10T05:00:43.583Z,16.90
2022-11-10T05:03:50.543Z,17.97
2022-11-10T05:06:57.228Z,16.30
2022-11-10T05:10:04.696Z,18.20
2022-11-10T05:13:11.540Z,18.23
2022-11-10T05:16:17.731Z,20.83
2022-11-10T05:19:23.610Z,19.02
2022-11-10T05:22:29.668Z,17.60
2022-11-10T05:25:38.198Z,20.20
2022-11-10T05:28:45.896Z,22.38
2022-11-10T05:31:52.129Z,21.65
2022-11-10T05:34:58.063Z,15.75
2022-11-10T05:38:05.194Z,19.95
2022-11-10T05:41:11.811Z,19.10
2022-11-10T05:44:18.022Z,14.13
2022-11-10T05:47:24.193Z,16.03
2022-11-10T05:50:30.353Z,21.00
2022-11-10T05:53:36.712Z,20.75
2022-11-10T05:56:42.754Z,20.98
2022-11-10T05:59:49.339Z,15.30
2022-11-10T06:03:02.971Z,20.70
2022-11-10T06:06:09.222Z,15.77
2022-11-10T06:09:15.405Z,13.90
2022-11-10T06:12:21.928Z,11.13
2022-11-10T06:15:28.067Z,18.42
2022-11-10T06:18:34.096Z,11.00
2022-11-10T06:21:40.142Z,16.17
2022-11-10T06:24:46.848Z,15.00
2022-11-10T06:27:52.763Z,14.30
2022-11-10T06:30:59.293Z,13.07
2022-11-10T06:37:11.721Z,15.73
2022-11-10T06:40:17.564Z,15.95
2022-11-10T06:43:24.169Z,20.80
2022-11-10T06:46:30.522Z,19.63
2022-11-10T06:49:36.522Z,15.60
2022-11-10T06:52:42.417Z,17.95
2022-11-10T06:55:48.590Z,12.43
2022-11-10T06:58:54.477Z,18.60
2022-11-10T07:02:00.555Z,14.48
2022-11-10T07:05:06.721Z,27.80
2022-11-10T07:08:16.481Z,15.77
2022-11-10T07:11:22.508Z,19.25
2022-11-10T07:14:28.507Z,18.33
2022-11-10T07:17:41.726Z,13.13
2022-11-10T07:20:47.718Z,13.88
2022-11-10T07:23:53.979Z,15.95
2022-11-10T07:27:00.664Z,15.38
2022-11-10T07:30:07.713Z,15.10
2022-11-10T07:36:20.726Z,13.95
2022-11-10T07:39:26.640Z,20.83
2022-11-10T07:42:32.673Z,13.57
2022-11-10T07:45:39.137Z,12.50
2022-11-10T07:48:45.285Z,16.48
2022-11-10T07:51:51.521Z,15.90
2022-11-10T07:54:58.031Z,16.70
2022-11-10T07:58:04.866Z,14.90
2022-11-10T08:01:11.032Z,12.20
2022-11-10T08:04:17.371Z,13.23
2022-11-10T08:07:23.490Z,13.60
2022-11-10T08:10:30.509Z,26.60
2022-11-10T08:13:36.458Z,18.45
2022-11-10T08:16:42.350Z,12.63
2022-11-10T08:19:48.174Z,12.95
2022-11-10T08:23:02.904Z,17.25
2022-11-10T08:26:09.210Z,15.30
2022-11-10T08:29:15.178Z,15.07
2022-11-10T08:32:21.354Z,13.57
2022-11-10T08:35:30.521Z,14.87
2022-11-10T08:38:36.701Z,18.15
2022-11-10T08:41:42.715Z,12.48
2022-11-10T08:44:48.849Z,20.27
2022-11-10T08:48:02.779Z,15.85
2022-11-10T08:51:09.228Z,29.77
2022-11-10T08:54:15.233Z,15.82
2022-11-10T08:57:21.214Z,18.48
2022-11-10T09:00:28.805Z,18.20
2022-11-10T09:03:35.285Z,14.50
2022-11-10T09:06:42.926Z,16.13
2022-11-10T09:10:05.914Z,15.75
2022-11-10T09:13:15.129Z,15.60
2022-11-10T09:16:21.503Z,26.15
2022-11-10T09:19:27.429Z,14.88
2022-11-10T09:22:36.014Z,19.92
2022-11-10T09:25:43.648Z,20.75
2022-11-10T09:28:50.543Z,18.45
2022-11-10T09:31:56.599Z,16.42
2022-11-10T09:35:03.890Z,20.77
2022-11-10T09:38:09.954Z,18.23
2022-11-10T09:41:16.204Z,21.42
2022-11-10T09:44:29.632Z,24.27
2022-11-10T09:48:00.516Z,17.63
2022-11-10T09:51:17.116Z,17.73
2022-11-10T09:54:33.580Z,17.00
2022-11-10T09:57:47.712Z,24.87
2022-11-10T10:01:05.471Z,20.38
2022-11-10T10:04:20.431Z,17.73
2022-11-10T10:07:48.644Z,18.65
2022-11-10T10:10:57.624Z,22.52
2022-11-10T10:14:39.395Z,16.52
2022-11-10T10:18:25.737Z,13.32
2022-11-10T10:21:51.396Z,17.98
2022-11-10T10:25:02.147Z,23.52
2022-11-10T10:28:20.032Z,24.15
2022-11-10T10:31:32.690Z,18.98
2022-11-10T10:34:39.594Z,22.98
2022-11-10T10:37:51.185Z,23.92
2022-11-10T10:41:03.490Z,22.02
2022-11-10T10:44:19.113Z,17.17
2022-11-10T10:47:37.478Z,20.77
2022-11-10T10:50:43.631Z,35.33
2022-11-10T10:53:49.878Z,14.82
2022-11-10T10:57:05.143Z,19.63
2022-11-10T11:00:22.030Z,18.50
2022-11-10T11:03:50.109Z,20.33
2022-11-10T11:07:02.769Z,21.55
2022-11-10T11:10:24.325Z,18.17
2022-11-10T11:13:30.397Z,18.40
2022-11-10T11:16:56.654Z,23.43
2022-11-10T11:20:03.181Z,25.83
2022-11-10T11:23:15.229Z,21.55
2022-11-10T11:26:59.517Z,18.15
2022-11-10T11:30:10.668Z,18.23
2022-11-10T11:33:19.737Z,17.23
2022-11-10T11:36:39.121Z,31.42
2022-11-10T11:39:50.977Z,23.13
2022-11-10T11:43:08.310Z,21.15
2022-11-10T11:46:43.655Z,19.42
2022-11-10T11:50:35.631Z,17.80
2022-11-10T11:54:02.794Z,22.37
2022-11-10T11:57:46.630Z,18.35
2022-11-10T12:00:59.921Z,20.48
2022-11-10T12:04:30.986Z,18.83
2022-11-10T12:08:01.915Z,26.35
2022-11-10T12:11:38.878Z,20.25
2022-11-10T12:15:16.833Z,22.80
2022-11-10T12:18:36.333Z,24.83
2022-11-10T12:21:49.139Z,20.17
2022-11-10T12:25:01.660Z,19.23
2022-11-10T12:28:17.336Z,27.63
2022-11-10T12:31:26.678Z,20.42
2022-11-10T12:34:56.882Z,24.20
2022-11-10T12:38:21.738Z,20.08
2022-11-10T12:41:35.923Z,17.65
2022-11-10T12:44:54.348Z,17.88
2022-11-10T12:48:02.726Z,21.88
2022-11-10T12:51:25.787Z,20.88
2022-11-10T12:54:31.753Z,22.60
2022-11-10T12:57:38.418Z,19.52
2022-11-10T13:00:56.619Z,18.73
2022-11-10T13:04:03.138Z,28.33
2022-11-10T13:07:13.656Z,21.65
2022-11-10T13:10:26.431Z,22.55
2022-11-10T13:13:52.234Z,18.05
2022-11-10T13:17:00.434Z,25.52
2022-11-10T13:20:44.632Z,19.95
2022-11-10T13:23:50.425Z,19.30
2022-11-10T13:26:57.473Z,18.00
2022-11-10T13:33:35.128Z,22.15
2022-11-10T13:36:43.686Z,21.00
2022-11-10T13:39:50.513Z,25.52
2022-11-10T13:42:59.556Z,19.73
2022-11-10T13:46:05.831Z,28.63
2022-11-10T13:49:33.514Z,19.05
2022-11-10T13:52:56.701Z,25.83
2022-11-10T13:56:08.507Z,21.63
2022-11-10T13:59:21.089Z,23.17
2022-11-10T14:02:39.305Z,17.60
2022-11-10T14:06:07.891Z,21.35
2022-11-10T14:09:26.966Z,17.63
2022-11-10T14:12:55.761Z,21.55
2022-11-10T14:16:02.387Z,27.75
2022-11-10T14:19:14.396Z,20.90
2022-11-10T14:22:37.981Z,22.15
2022-11-10T14:25:45.069Z,24.27
2022-11-10T14:28:51.482Z,21.48
2022-11-10T14:32:12.268Z,21.48
2022-11-10T14:35:28.108Z,27.75
2022-11-10T14:38:35.872Z,29.65
2022-11-10T14:41:49.403Z,24.23
2022-11-10T14:45:13.806Z,29.67
2022-11-10T14:48:25.800Z,28.45
2022-11-10T14:51:34.855Z,19.73
2022-11-10T14:54:46.067Z,25.23
2022-11-10T14:58:08.208Z,20.42
2022-11-10T15:01:27.722Z,21.40
2022-11-10T15:04:36.558Z,24.00
2022-11-10T15:07:44.987Z,28.42
2022-11-10T15:10:56.460Z,25.25
2022-11-10T15:14:02.750Z,24.35
2022-11-10T15:17:11.249Z,31.57
2022-11-10T15:20:38.656Z,25.45
2022-11-10T15:23:52.457Z,24.20
2022-11-10T15:26:58.571Z,25.63
2022-11-10T15:30:23.051Z,24.05
2022-11-10T15:33:34.267Z,24.88
2022-11-10T15:36:40.430Z,29.40
2022-11-10T15:39:46.548Z,37.97
2022-11-10T15:43:28.033Z,26.25
2022-11-10T15:46:34.536Z,23.23
2022-11-10T15:49:41.212Z,29.83
2022-11-10T15:52:47.310Z,27.38
2022-11-10T15:55:53.428Z,26.10
2022-11-10T15:59:02.404Z,29.55
2022-11-10T16:02:20.264Z,23.88
2022-11-10T16:08:32.335Z,27.92
2022-11-10T16:11:40.637Z,29.02
2022-11-10T16:14:49.812Z,28.73
2022-11-10T16:17:55.951Z,29.00
2022-11-10T16:21:02.075Z,36.58
2022-11-10T16:24:08.190Z,28.95
2022-11-10T16:27:14.959Z,30.20
2022-11-10T16:30:21.174Z,28.98
2022-11-10T16:33:29.140Z,29.03
2022-11-10T16:36:36.597Z,27.60
2022-11-10T16:39:42.827Z,28.73
2022-11-10T16:42:51.472Z,27.80
2022-11-10T16:46:00.384Z,22.70
2022-11-10T16:49:15.193Z,30.77
2022-11-10T16:52:22.717Z,23.90
2022-11-10T16:55:29.527Z,26.45
2022-11-10T16:58:35.951Z,31.35
2022-11-10T17:01:44.260Z,23.65
2022-11-10T17:04:50.561Z,26.15
2022-11-10T17:07:58.857Z,30.00
2022-11-10T17:11:05.238Z,24.75
2022-11-10T17:14:13.067Z,29.50
2022-11-10T17:17:20.061Z,28.25
2022-11-10T17:20:34.511Z,30.73
2022-11-10T17:23:40.971Z,29.23
2022-11-10T17:26:47.800Z,28.05
2022-11-10T17:33:05.099Z,26.25
2022-11-10T17:36:15.827Z,24.20
2022-11-10T17:39:22.695Z,29.05
2022-11-10T17:42:29.014Z,25.65
2022-11-10T17:45:35.405Z,28.38
2022-11-10T17:48:42.074Z,25.27
2022-11-10T17:51:48.206Z,23.83
2022-11-10T17:54:54.663Z,32.17
2022-11-10T17:58:01.216Z,27.95
2022-11-10T18:01:19.096Z,27.40
2022-11-10T18:04:26.476Z,24.20
2022-11-10T18:07:33.220Z,21.80
2022-11-10T18:10:46.446Z,25.95
2022-11-10T18:13:52.571Z,22.58
2022-11-10T18:16:58.619Z,20.70
2022-11-10T18:20:05.643Z,22.27
2022-11-10T18:26:18.684Z,24.15
2022-11-10T18:29:24.783Z,20.25
2022-11-10T18:32:30.807Z,21.65
2022-11-10T18:35:39.301Z,25.67
2022-11-10T18:38:45.451Z,25.65
2022-11-10T18:41:52.654Z,26.42
2022-11-10T18:44:58.819Z,23.38
2022-11-10T18:48:05.384Z,27.45
2022-11-10T18:51:11.710Z,19.33
2022-11-10T18:54:18.111Z,23.30
2022-11-10T18:57:24.209Z,18.13
2022-11-10T19:00:30.548Z,27.55
2022-11-10T19:03:37.089Z,23.75
2022-11-10T19:06:43.126Z,34.78
2022-11-10T19:09:49.421Z,30.90
2022-11-10T19:12:56.020Z,30.90
2022-11-10T19:16:09.944Z,26.17
2022-11-10T19:19:16.384Z,24.08
2022-11-10T19:22:22.754Z,25.55
2022-11-10T19:25:29.780Z,29.02
2022-11-10T19:28:37.269Z,29.40
2022-11-10T19:31:44.196Z,26.00
2022-11-10T19:34:50.577Z,26.88
2022-11-10T19:37:56.862Z,26.63
2022-11-10T19:41:06.222Z,33.22
2022-11-10T19:44:12.611Z,33.03
2022-11-10T19:47:18.559Z,30.60
2022-11-10T19:50:24.533Z,33.33
2022-11-10T19:53:31.725Z,28.20
2022-11-10T19:56:37.707Z,37.83
2022-11-10T19:59:43.921Z,30.63
2022-11-10T20:02:52.068Z,29.83
2022-11-10T20:06:00.832Z,28.42
2022-11-10T20:09:06.776Z,34.78
2022-11-10T20:12:13.193Z,34.78
2022-11-10T20:15:19.475Z,25.50
2022-11-10T20:18:25.872Z,30.02
2022-11-10T20:21:32.046Z,37.43
2022-11-10T20:24:38.524Z,32.60
2022-11-10T20:27:44.884Z,30.67
2022-11-10T20:30:51.239Z,30.17
2022-11-10T20:33:57.895Z,37.00
2022-11-10T20:37:04.304Z,38.58
2022-11-10T20:40:42.248Z,28.38
2022-11-10T20:43:40.132Z,35.28
2022-11-10T20:46:54.484Z,33.67
2022-11-10T20:50:01.076Z,31.13
2022-11-10T20:53:07.418Z,25.95
2022-11-10T20:56:15.657Z,34.35
2022-11-10T20:59:22.022Z,31.38
2022-11-10T21:02:28.130Z,32.13
2022-11-10T21:05:34.749Z,31.83
2022-11-10T21:08:41.090Z,30.15
2022-11-10T21:12:06.126Z,26.53
2022-11-10T21:15:12.444Z,28.65
2022-11-10T21:18:19.586Z,38.03
2022-11-10T21:24:34.514Z,24.58
2022-11-10T21:27:40.973Z,24.55
2022-11-10T21:30:47.464Z,26.55
2022-11-10T21:33:57.909Z,31.67
2022-11-10T21:37:04.009Z,23.52
2022-11-10T21:40:11.436Z,29.23
2022-11-10T21:43:17.527Z,28.50
2022-11-10T21:46:24.688Z,29.67
2022-11-10T21:49:31.174Z,25.02
2022-11-10T21:52:37.516Z,29.88
2022-11-10T21:55:43.971Z,28.90
2022-11-10T21:58:50.087Z,29.85
2022-11-10T22:01:56.554Z,27.48
2022-11-10T22:05:03.352Z,27.85
2022-11-10T22:08:10.690Z,26.20
2022-11-10T22:11:38.212Z,29.83
2022-11-10T22:15:03.106Z,24.50
2022-11-10T22:18:37.443Z,25.17
2022-11-10T22:21:44.446Z,29.60
2022-11-10T22:24:50.868Z,27.17
2022-11-10T22:27:57.638Z,29.50
2022-11-10T22:31:04.777Z,24.77
2022-11-10T22:34:11.241Z,28.08
2022-11-10T22:37:17.707Z,22.50
2022-11-10T22:40:42.934Z,27.17
2022-11-10T22:44:03.900Z,23.67
2022-11-10T22:47:09.898Z,34.75
2022-11-10T22:50:16.544Z,24.98
2022-11-10T22:53:23.919Z,31.75
2022-11-10T22:56:32.185Z,28.60
2022-11-10T22:59:38.600Z,33.47
2022-11-10T23:02:45.159Z,29.67
2022-11-10T23:05:56.314Z,31.52
2022-11-10T23:09:03.389Z,28.17
2022-11-10T23:12:09.485Z,25.60
2022-11-10T23:15:15.870Z,27.27
2022-11-10T23:18:22.741Z,33.60
2022-11-10T23:21:30.434Z,30.00
2022-11-10T23:24:36.803Z,29.77
2022-11-10T23:27:43.473Z,24.60
2022-11-10T23:30:50.353Z,30.38
2022-11-10T23:33:57.867Z,30.20
2022-11-10T23:37:04.095Z,29.90
2022-11-10T23:40:10.772Z,32.28
2022-11-10T23:43:17.247Z,29.70
2022-11-10T23:46:23.740Z,29.38
2022-11-10T23:49:30.258Z,31.50
2022-11-10T23:52:36.362Z,37.88
2022-11-10T23:55:43.120Z,29.60
2022-11-10T23:58:49.514Z,30.40
